sensor_id;sensor_type;location;lat;lon;timestamp;P1;durP1;ratioP1;P2;durP2;ratioP2
22937;SDS011;11634;42.734;23.298;2023-02-15T00:01:36;49.20;;;31.80;;
22937;SDS011;11634;42.734;23.298;2023-02-15T00:04:02;46.63;;;31.37;;
22937;SDS011;11634;42.734;23.298;2023-02-15T00:06:29;46.97;;;31.30;;
22937;SDS011;11634;42.734;23.298;2023-02-15T00:08:55;47.23;;;32.20;;
22937;SDS011;11634;42.734;23.298;2023-02-15T00:11:21;46.20;;;31.30;;
22937;SDS011;11634;42.734;23.298;2023-02-15T00:14:12;49.30;;;31.57;;
22937;SDS011;11634;42.734;23.298;2023-02-15T00:16:40;48.30;;;32.27;;
22937;SDS011;11634;42.734;23.298;2023-02-15T00:19:07;52.00;;;32.90;;
22937;SDS011;11634;42.734;23.298;2023-02-15T00:21:35;50.07;;;31.03;;
22937;SDS011;11634;42.734;23.298;2023-02-15T00:24:02;46.93;;;32.97;;
22937;SDS011;11634;42.734;23.298;2023-02-15T00:26:29;48.67;;;32.63;;
22937;SDS011;11634;42.734;23.298;2023-02-15T00:28:56;49.63;;;32.47;;
22937;SDS011;11634;42.734;23.298;2023-02-15T00:31:26;48.30;;;30.83;;
22937;SDS011;11634;42.734;23.298;2023-02-15T00:33:54;48.10;;;31.93;;
22937;SDS011;11634;42.734;23.298;2023-02-15T00:36:20;52.27;;;32.70;;
22937;SDS011;11634;42.734;23.298;2023-02-15T00:38:47;47.33;;;31.50;;
22937;SDS011;11634;42.734;23.298;2023-02-15T00:41:13;44.70;;;28.80;;
22937;SDS011;11634;42.734;23.298;2023-02-15T00:43:38;46.53;;;30.40;;
22937;SDS011;11634;42.734;23.298;2023-02-15T00:46:04;46.63;;;31.23;;
22937;SDS011;11634;42.734;23.298;2023-02-15T00:48:31;47.00;;;31.70;;
22937;SDS011;11634;42.734;23.298;2023-02-15T00:50:58;47.27;;;32.33;;
22937;SDS011;11634;42.734;23.298;2023-02-15T00:53:25;46.17;;;29.97;;
22937;SDS011;11634;42.734;23.298;2023-02-15T00:55:52;45.70;;;31.47;;
22937;SDS011;11634;42.734;23.298;2023-02-15T00:58:17;44.27;;;29.73;;
22937;SDS011;11634;42.734;23.298;2023-02-15T01:00:45;44.83;;;30.70;;
22937;SDS011;11634;42.734;23.298;2023-02-15T01:03:12;45.77;;;31.73;;
22937;SDS011;11634;42.734;23.298;2023-02-15T01:05:38;45.90;;;31.57;;
22937;SDS011;11634;42.734;23.298;2023-02-15T01:08:04;45.83;;;30.73;;
22937;SDS011;11634;42.734;23.298;2023-02-15T01:10:30;46.13;;;30.50;;
22937;SDS011;11634;42.734;23.298;2023-02-15T01:12:56;44.70;;;30.33;;
22937;SDS011;11634;42.734;23.298;2023-02-15T01:15:22;44.53;;;29.57;;
22937;SDS011;11634;42.734;23.298;2023-02-15T01:17:49;44.97;;;30.23;;
22937;SDS011;11634;42.734;23.298;2023-02-15T01:20:21;43.27;;;29.60;;
22937;SDS011;11634;42.734;23.298;2023-02-15T01:22:49;43.93;;;30.70;;
22937;SDS011;11634;42.734;23.298;2023-02-15T01:25:19;48.83;;;32.67;;
22937;SDS011;11634;42.734;23.298;2023-02-15T01:27:47;45.33;;;29.93;;
22937;SDS011;11634;42.734;23.298;2023-02-15T01:30:16;46.40;;;31.17;;
22937;SDS011;11634;42.734;23.298;2023-02-15T01:32:42;44.07;;;31.23;;
22937;SDS011;11634;42.734;23.298;2023-02-15T01:35:09;46.60;;;32.13;;
22937;SDS011;11634;42.734;23.298;2023-02-15T01:37:35;42.57;;;29.83;;
22937;SDS011;11634;42.734;23.298;2023-02-15T01:40:02;42.80;;;29.70;;
22937;SDS011;11634;42.734;23.298;2023-02-15T01:42:29;42.20;;;30.33;;
22937;SDS011;11634;42.734;23.298;2023-02-15T01:44:59;42.07;;;29.37;;
22937;SDS011;11634;42.734;23.298;2023-02-15T01:50:09;47.13;;;30.80;;
22937;SDS011;11634;42.734;23.298;2023-02-15T01:52:41;42.67;;;30.13;;
22937;SDS011;11634;42.734;23.298;2023-02-15T01:55:14;44.67;;;30.73;;
22937;SDS011;11634;42.734;23.298;2023-02-15T01:57:41;44.53;;;29.17;;
22937;SDS011;11634;42.734;23.298;2023-02-15T02:00:08;44.93;;;31.03;;
22937;SDS011;11634;42.734;23.298;2023-02-15T02:02:38;45.13;;;31.60;;
22937;SDS011;11634;42.734;23.298;2023-02-15T02:05:04;46.70;;;30.63;;
22937;SDS011;11634;42.734;23.298;2023-02-15T02:07:33;45.60;;;30.83;;
22937;SDS011;11634;42.734;23.298;2023-02-15T02:10:04;44.20;;;30.47;;
22937;SDS011;11634;42.734;23.298;2023-02-15T02:12:33;45.17;;;31.00;;
22937;SDS011;11634;42.734;23.298;2023-02-15T02:15:00;43.77;;;30.73;;
22937;SDS011;11634;42.734;23.298;2023-02-15T02:29:22;44.33;;;29.60;;
22937;SDS011;11634;42.734;23.298;2023-02-15T02:34:56;44.50;;;30.40;;
22937;SDS011;11634;42.734;23.298;2023-02-15T02:38:25;45.17;;;30.97;;
22937;SDS011;11634;42.734;23.298;2023-02-15T02:43:29;44.00;;;29.73;;
22937;SDS011;11634;42.734;23.298;2023-02-15T02:46:08;43.40;;;29.20;;
22937;SDS011;11634;42.734;23.298;2023-02-15T02:48:38;40.77;;;28.37;;
22937;SDS011;11634;42.734;23.298;2023-02-15T02:51:04;45.00;;;30.70;;
22937;SDS011;11634;42.734;23.298;2023-02-15T02:53:30;45.73;;;29.27;;
22937;SDS011;11634;42.734;23.298;2023-02-15T02:56:02;39.03;;;25.67;;
22937;SDS011;11634;42.734;23.298;2023-02-15T02:59:01;40.50;;;28.57;;
22937;SDS011;11634;42.734;23.298;2023-02-15T03:01:38;42.60;;;29.03;;
22937;SDS011;11634;42.734;23.298;2023-02-15T03:04:15;42.07;;;28.67;;
22937;SDS011;11634;42.734;23.298;2023-02-15T03:06:48;40.27;;;27.33;;
22937;SDS011;11634;42.734;23.298;2023-02-15T03:09:27;40.00;;;27.90;;
22937;SDS011;11634;42.734;23.298;2023-02-15T03:12:00;39.60;;;28.20;;
22937;SDS011;11634;42.734;23.298;2023-02-15T03:14:30;37.07;;;25.00;;
22937;SDS011;11634;42.734;23.298;2023-02-15T03:16:57;41.17;;;28.67;;
22937;SDS011;11634;42.734;23.298;2023-02-15T03:19:25;38.17;;;26.97;;
22937;SDS011;11634;42.734;23.298;2023-02-15T03:21:55;41.70;;;28.53;;
22937;SDS011;11634;42.734;23.298;2023-02-15T03:24:45;39.27;;;28.47;;
22937;SDS011;11634;42.734;23.298;2023-02-15T03:27:17;40.87;;;27.60;;
22937;SDS011;11634;42.734;23.298;2023-02-15T03:29:49;37.17;;;25.67;;
22937;SDS011;11634;42.734;23.298;2023-02-15T03:32:20;38.83;;;26.27;;
22937;SDS011;11634;42.734;23.298;2023-02-15T03:34:49;38.13;;;25.87;;
22937;SDS011;11634;42.734;23.298;2023-02-15T03:37:18;34.80;;;25.00;;
22937;SDS011;11634;42.734;23.298;2023-02-15T03:39:57;39.07;;;26.80;;
22937;SDS011;11634;42.734;23.298;2023-02-15T03:42:46;36.67;;;24.67;;
22937;SDS011;11634;42.734;23.298;2023-02-15T03:45:15;37.27;;;27.17;;
22937;SDS011;11634;42.734;23.298;2023-02-15T03:47:47;38.80;;;28.30;;
22937;SDS011;11634;42.734;23.298;2023-02-15T03:53:00;36.30;;;25.70;;
22937;SDS011;11634;42.734;23.298;2023-02-15T03:55:31;42.77;;;27.83;;
22937;SDS011;11634;42.734;23.298;2023-02-15T03:57:59;39.00;;;27.13;;
22937;SDS011;11634;42.734;23.298;2023-02-15T04:00:45;40.33;;;27.73;;
22937;SDS011;11634;42.734;23.298;2023-02-15T04:03:43;37.23;;;25.77;;
22937;SDS011;11634;42.734;23.298;2023-02-15T04:06:16;36.83;;;25.83;;
22937;SDS011;11634;42.734;23.298;2023-02-15T04:08:42;36.80;;;26.73;;
22937;SDS011;11634;42.734;23.298;2023-02-15T04:11:28;36.57;;;25.37;;
22937;SDS011;11634;42.734;23.298;2023-02-15T04:13:53;36.40;;;25.57;;
22937;SDS011;11634;42.734;23.298;2023-02-15T04:16:25;38.20;;;26.50;;
22937;SDS011;11634;42.734;23.298;2023-02-15T04:18:52;41.70;;;28.23;;
22937;SDS011;11634;42.734;23.298;2023-02-15T04:21:36;36.47;;;26.03;;
22937;SDS011;11634;42.734;23.298;2023-02-15T04:24:20;40.67;;;27.07;;
22937;SDS011;11634;42.734;23.298;2023-02-15T04:27:04;38.07;;;26.90;;
22937;SDS011;11634;42.734;23.298;2023-02-15T04:29:31;38.93;;;27.47;;
22937;SDS011;11634;42.734;23.298;2023-02-15T04:31:58;40.80;;;26.43;;
22937;SDS011;11634;42.734;23.298;2023-02-15T04:34:25;40.67;;;27.23;;
22937;SDS011;11634;42.734;23.298;2023-02-15T04:36:51;38.97;;;26.90;;
22937;SDS011;11634;42.734;23.298;2023-02-15T04:39:17;39.20;;;26.90;;
22937;SDS011;11634;42.734;23.298;2023-02-15T04:41:44;37.00;;;25.93;;
22937;SDS011;11634;42.734;23.298;2023-02-15T04:44:10;37.73;;;26.53;;
22937;SDS011;11634;42.734;23.298;2023-02-15T04:46:36;38.40;;;26.60;;
22937;SDS011;11634;42.734;23.298;2023-02-15T04:49:01;38.03;;;26.20;;
22937;SDS011;11634;42.734;23.298;2023-02-15T04:51:28;36.63;;;25.50;;
22937;SDS011;11634;42.734;23.298;2023-02-15T04:53:53;47.63;;;27.60;;
22937;SDS011;11634;42.734;23.298;2023-02-15T04:56:19;38.33;;;27.17;;
22937;SDS011;11634;42.734;23.298;2023-02-15T04:58:45;35.97;;;24.00;;
22937;SDS011;11634;42.734;23.298;2023-02-15T05:01:12;40.83;;;28.10;;
22937;SDS011;11634;42.734;23.298;2023-02-15T05:03:37;43.10;;;28.20;;
22937;SDS011;11634;42.734;23.298;2023-02-15T05:06:03;41.13;;;28.27;;
22937;SDS011;11634;42.734;23.298;2023-02-15T05:08:30;39.67;;;26.47;;
22937;SDS011;11634;42.734;23.298;2023-02-15T05:10:56;44.27;;;28.47;;
22937;SDS011;11634;42.734;23.298;2023-02-15T05:13:25;40.57;;;28.17;;
22937;SDS011;11634;42.734;23.298;2023-02-15T05:15:51;43.37;;;28.73;;
22937;SDS011;11634;42.734;23.298;2023-02-15T05:18:18;43.17;;;28.27;;
22937;SDS011;11634;42.734;23.298;2023-02-15T05:20:45;40.67;;;28.73;;
22937;SDS011;11634;42.734;23.298;2023-02-15T05:23:12;38.07;;;27.47;;
22937;SDS011;11634;42.734;23.298;2023-02-15T05:25:39;41.20;;;28.47;;
22937;SDS011;11634;42.734;23.298;2023-02-15T05:28:24;39.83;;;27.97;;
22937;SDS011;11634;42.734;23.298;2023-02-15T05:30:59;37.57;;;27.27;;
22937;SDS011;11634;42.734;23.298;2023-02-15T05:33:27;41.10;;;27.23;;
22937;SDS011;11634;42.734;23.298;2023-02-15T05:35:52;38.27;;;27.57;;
22937;SDS011;11634;42.734;23.298;2023-02-15T05:38:19;37.83;;;26.70;;
22937;SDS011;11634;42.734;23.298;2023-02-15T05:40:44;42.00;;;27.53;;
22937;SDS011;11634;42.734;23.298;2023-02-15T05:43:10;39.70;;;26.80;;
22937;SDS011;11634;42.734;23.298;2023-02-15T05:45:35;38.20;;;26.90;;
22937;SDS011;11634;42.734;23.298;2023-02-15T05:48:01;39.87;;;27.13;;
22937;SDS011;11634;42.734;23.298;2023-02-15T05:50:27;39.07;;;27.73;;
22937;SDS011;11634;42.734;23.298;2023-02-15T05:52:52;37.03;;;25.57;;
22937;SDS011;11634;42.734;23.298;2023-02-15T05:55:18;44.10;;;32.60;;
22937;SDS011;11634;42.734;23.298;2023-02-15T05:57:44;39.43;;;26.90;;
22937;SDS011;11634;42.734;23.298;2023-02-15T06:00:09;37.17;;;24.53;;
22937;SDS011;11634;42.734;23.298;2023-02-15T06:02:37;40.20;;;27.17;;
22937;SDS011;11634;42.734;23.298;2023-02-15T06:05:04;39.57;;;26.73;;
22937;SDS011;11634;42.734;23.298;2023-02-15T06:07:30;40.53;;;28.63;;
22937;SDS011;11634;42.734;23.298;2023-02-15T06:09:57;40.93;;;28.30;;
22937;SDS011;11634;42.734;23.298;2023-02-15T06:12:26;38.77;;;27.17;;
22937;SDS011;11634;42.734;23.298;2023-02-15T06:14:51;41.17;;;28.33;;
22937;SDS011;11634;42.734;23.298;2023-02-15T06:17:18;41.50;;;28.03;;
22937;SDS011;11634;42.734;23.298;2023-02-15T06:19:44;38.00;;;27.37;;
22937;SDS011;11634;42.734;23.298;2023-02-15T06:22:09;40.07;;;26.53;;
22937;SDS011;11634;42.734;23.298;2023-02-15T06:24:35;39.57;;;26.73;;
22937;SDS011;11634;42.734;23.298;2023-02-15T06:27:01;40.30;;;26.93;;
22937;SDS011;11634;42.734;23.298;2023-02-15T06:29:28;42.20;;;27.63;;
22937;SDS011;11634;42.734;23.298;2023-02-15T06:31:54;41.70;;;27.37;;
22937;SDS011;11634;42.734;23.298;2023-02-15T06:34:24;39.20;;;25.90;;
22937;SDS011;11634;42.734;23.298;2023-02-15T06:36:50;35.10;;;25.27;;
22937;SDS011;11634;42.734;23.298;2023-02-15T06:39:16;36.30;;;25.07;;
22937;SDS011;11634;42.734;23.298;2023-02-15T06:41:42;34.30;;;23.20;;
22937;SDS011;11634;42.734;23.298;2023-02-15T06:44:09;33.13;;;23.80;;
22937;SDS011;11634;42.734;23.298;2023-02-15T06:46:34;38.00;;;25.23;;
22937;SDS011;11634;42.734;23.298;2023-02-15T06:49:01;40.90;;;27.40;;
22937;SDS011;11634;42.734;23.298;2023-02-15T06:51:28;37.33;;;25.80;;
22937;SDS011;11634;42.734;23.298;2023-02-15T06:53:53;38.70;;;27.33;;
22937;SDS011;11634;42.734;23.298;2023-02-15T06:56:20;37.53;;;26.70;;
22937;SDS011;11634;42.734;23.298;2023-02-15T06:58:46;40.70;;;29.93;;
22937;SDS011;11634;42.734;23.298;2023-02-15T07:01:13;35.47;;;24.13;;
22937;SDS011;11634;42.734;23.298;2023-02-15T07:03:40;34.83;;;25.07;;
22937;SDS011;11634;42.734;23.298;2023-02-15T07:06:07;39.47;;;26.27;;
22937;SDS011;11634;42.734;23.298;2023-02-15T07:08:36;30.13;;;21.93;;
22937;SDS011;11634;42.734;23.298;2023-02-15T07:11:03;32.40;;;24.23;;
22937;SDS011;11634;42.734;23.298;2023-02-15T07:13:49;34.20;;;23.10;;
22937;SDS011;11634;42.734;23.298;2023-02-15T07:16:18;34.20;;;23.57;;
22937;SDS011;11634;42.734;23.298;2023-02-15T07:18:44;33.73;;;24.00;;
22937;SDS011;11634;42.734;23.298;2023-02-15T07:21:11;37.50;;;27.23;;
22937;SDS011;11634;42.734;23.298;2023-02-15T07:23:37;33.35;;;24.45;;
22937;SDS011;11634;42.734;23.298;2023-02-15T07:26:04;40.25;;;25.33;;
22937;SDS011;11634;42.734;23.298;2023-02-15T07:28:32;40.97;;;26.93;;
22937;SDS011;11634;42.734;23.298;2023-02-15T07:31:02;36.53;;;24.20;;
22937;SDS011;11634;42.734;23.298;2023-02-15T07:33:30;35.73;;;23.10;;
22937;SDS011;11634;42.734;23.298;2023-02-15T07:35:57;34.40;;;24.48;;
22937;SDS011;11634;42.734;23.298;2023-02-15T07:38:26;35.50;;;24.83;;
22937;SDS011;11634;42.734;23.298;2023-02-15T07:41:02;34.07;;;24.40;;
22937;SDS011;11634;42.734;23.298;2023-02-15T07:43:33;36.53;;;24.57;;
22937;SDS011;11634;42.734;23.298;2023-02-15T07:46:02;31.10;;;22.30;;
22937;SDS011;11634;42.734;23.298;2023-02-15T07:48:29;31.38;;;22.98;;
22937;SDS011;11634;42.734;23.298;2023-02-15T07:51:02;33.78;;;23.27;;
22937;SDS011;11634;42.734;23.298;2023-02-15T07:53:31;36.33;;;24.73;;
22937;SDS011;11634;42.734;23.298;2023-02-15T07:56:00;33.25;;;23.90;;
22937;SDS011;11634;42.734;23.298;2023-02-15T07:58:33;34.03;;;23.90;;
22937;SDS011;11634;42.734;23.298;2023-02-15T08:01:19;35.38;;;23.83;;
22937;SDS011;11634;42.734;23.298;2023-02-15T08:03:54;32.72;;;23.15;;
22937;SDS011;11634;42.734;23.298;2023-02-15T08:06:20;36.53;;;25.17;;
22937;SDS011;11634;42.734;23.298;2023-02-15T08:08:50;33.88;;;23.95;;
22937;SDS011;11634;42.734;23.298;2023-02-15T08:14:10;36.85;;;25.65;;
22937;SDS011;11634;42.734;23.298;2023-02-15T08:16:46;36.90;;;25.38;;
22937;SDS011;11634;42.734;23.298;2023-02-15T08:19:17;36.00;;;24.77;;
22937;SDS011;11634;42.734;23.298;2023-02-15T08:21:51;31.98;;;22.52;;
22937;SDS011;11634;42.734;23.298;2023-02-15T08:24:23;33.78;;;22.55;;
22937;SDS011;11634;42.734;23.298;2023-02-15T08:26:51;38.97;;;23.42;;
22937;SDS011;11634;42.734;23.298;2023-02-15T08:29:18;30.80;;;22.80;;
22937;SDS011;11634;42.734;23.298;2023-02-15T08:31:54;32.65;;;21.65;;
22937;SDS011;11634;42.734;23.298;2023-02-15T08:34:32;30.08;;;21.90;;
22937;SDS011;11634;42.734;23.298;2023-02-15T08:37:01;32.72;;;23.00;;
22937;SDS011;11634;42.734;23.298;2023-02-15T08:39:28;28.92;;;21.20;;
22937;SDS011;11634;42.734;23.298;2023-02-15T08:41:56;29.05;;;21.40;;
22937;SDS011;11634;42.734;23.298;2023-02-15T08:44:21;27.60;;;19.15;;
22937;SDS011;11634;42.734;23.298;2023-02-15T08:46:48;23.83;;;17.17;;
22937;SDS011;11634;42.734;23.298;2023-02-15T08:49:15;22.67;;;16.77;;
22937;SDS011;11634;42.734;23.298;2023-02-15T08:51:44;22.88;;;16.48;;
22937;SDS011;11634;42.734;23.298;2023-02-15T08:54:11;21.95;;;16.00;;
22937;SDS011;11634;42.734;23.298;2023-02-15T08:56:40;25.17;;;16.95;;
22937;SDS011;11634;42.734;23.298;2023-02-15T08:59:11;25.45;;;17.58;;
22937;SDS011;11634;42.734;23.298;2023-02-15T09:01:49;27.10;;;17.27;;
22937;SDS011;11634;42.734;23.298;2023-02-15T09:04:21;24.20;;;17.15;;
22937;SDS011;11634;42.734;23.298;2023-02-15T09:06:49;23.17;;;16.92;;
22937;SDS011;11634;42.734;23.298;2023-02-15T09:09:18;24.02;;;15.35;;
22937;SDS011;11634;42.734;23.298;2023-02-15T09:11:45;22.48;;;16.77;;
22937;SDS011;11634;42.734;23.298;2023-02-15T09:14:16;24.80;;;18.13;;
22937;SDS011;11634;42.734;23.298;2023-02-15T09:16:47;25.67;;;18.15;;
22937;SDS011;11634;42.734;23.298;2023-02-15T09:19:15;27.65;;;19.23;;
22937;SDS011;11634;42.734;23.298;2023-02-15T09:21:43;28.38;;;18.08;;
22937;SDS011;11634;42.734;23.298;2023-02-15T09:24:09;29.70;;;17.13;;
22937;SDS011;11634;42.734;23.298;2023-02-15T09:26:40;19.55;;;16.25;;
22937;SDS011;11634;42.734;23.298;2023-02-15T09:29:09;27.45;;;18.95;;
22937;SDS011;11634;42.734;23.298;2023-02-15T09:31:40;22.55;;;16.15;;
22937;SDS011;11634;42.734;23.298;2023-02-15T09:34:12;22.35;;;17.20;;
22937;SDS011;11634;42.734;23.298;2023-02-15T09:36:39;19.17;;;14.02;;
22937;SDS011;11634;42.734;23.298;2023-02-15T09:39:11;19.67;;;14.73;;
22937;SDS011;11634;42.734;23.298;2023-02-15T10:01:17;37.35;;;20.85;;
22937;SDS011;11634;42.734;23.298;2023-02-15T10:20:23;27.25;;;18.60;;
22937;SDS011;11634;42.734;23.298;2023-02-15T10:23:06;23.58;;;17.17;;
22937;SDS011;11634;42.734;23.298;2023-02-15T10:32:26;22.05;;;15.38;;
22937;SDS011;11634;42.734;23.298;2023-02-15T10:34:58;28.75;;;19.83;;
22937;SDS011;11634;42.734;23.298;2023-02-15T10:48:43;22.33;;;17.20;;
22937;SDS011;11634;42.734;23.298;2023-02-15T10:51:21;28.40;;;20.50;;
22937;SDS011;11634;42.734;23.298;2023-02-15T11:01:02;28.23;;;19.90;;
22937;SDS011;11634;42.734;23.298;2023-02-15T11:06:23;28.10;;;19.23;;
22937;SDS011;11634;42.734;23.298;2023-02-15T11:09:00;26.98;;;19.35;;
22937;SDS011;11634;42.734;23.298;2023-02-15T11:11:34;25.08;;;17.35;;
22937;SDS011;11634;42.734;23.298;2023-02-15T11:14:43;25.30;;;18.40;;
22937;SDS011;11634;42.734;23.298;2023-02-15T11:17:41;24.98;;;16.75;;
22937;SDS011;11634;42.734;23.298;2023-02-15T11:20:16;29.45;;;21.13;;
22937;SDS011;11634;42.734;23.298;2023-02-15T11:22:57;30.75;;;21.15;;
22937;SDS011;11634;42.734;23.298;2023-02-15T11:25:33;26.10;;;18.27;;
22937;SDS011;11634;42.734;23.298;2023-02-15T11:28:04;25.60;;;18.48;;
22937;SDS011;11634;42.734;23.298;2023-02-15T11:30:53;24.63;;;19.17;;
22937;SDS011;11634;42.734;23.298;2023-02-15T11:33:24;27.15;;;20.88;;
22937;SDS011;11634;42.734;23.298;2023-02-15T11:38:21;26.80;;;20.35;;
22937;SDS011;11634;42.734;23.298;2023-02-15T11:40:55;25.80;;;19.50;;
22937;SDS011;11634;42.734;23.298;2023-02-15T11:46:23;23.35;;;17.77;;
22937;SDS011;11634;42.734;23.298;2023-02-15T11:48:50;29.70;;;21.83;;
22937;SDS011;11634;42.734;23.298;2023-02-15T11:51:18;27.85;;;19.85;;
22937;SDS011;11634;42.734;23.298;2023-02-15T11:53:47;29.70;;;20.63;;
22937;SDS011;11634;42.734;23.298;2023-02-15T11:56:23;28.88;;;20.58;;
22937;SDS011;11634;42.734;23.298;2023-02-15T11:58:58;27.45;;;20.17;;
22937;SDS011;11634;42.734;23.298;2023-02-15T12:04:24;24.92;;;19.00;;
22937;SDS011;11634;42.734;23.298;2023-02-15T12:07:09;25.83;;;18.80;;
22937;SDS011;11634;42.734;23.298;2023-02-15T12:10:02;34.40;;;20.70;;
22937;SDS011;11634;42.734;23.298;2023-02-15T12:12:33;27.17;;;18.98;;
22937;SDS011;11634;42.734;23.298;2023-02-15T12:15:04;26.33;;;17.55;;
22937;SDS011;11634;42.734;23.298;2023-02-15T12:17:52;23.45;;;17.48;;
22937;SDS011;11634;42.734;23.298;2023-02-15T12:20:25;29.30;;;20.17;;
22937;SDS011;11634;42.734;23.298;2023-02-15T12:23:08;28.20;;;19.58;;
22937;SDS011;11634;42.734;23.298;2023-02-15T12:25:41;23.75;;;18.08;;
22937;SDS011;11634;42.734;23.298;2023-02-15T12:31:09;27.00;;;19.25;;
22937;SDS011;11634;42.734;23.298;2023-02-15T12:33:45;25.95;;;19.70;;
22937;SDS011;11634;42.734;23.298;2023-02-15T12:42:01;21.33;;;16.67;;
22937;SDS011;11634;42.734;23.298;2023-02-15T12:45:08;25.30;;;18.23;;
22937;SDS011;11634;42.734;23.298;2023-02-15T12:47:47;22.30;;;17.85;;
22937;SDS011;11634;42.734;23.298;2023-02-15T12:50:36;23.02;;;17.35;;
22937;SDS011;11634;42.734;23.298;2023-02-15T12:53:12;28.38;;;19.67;;
22937;SDS011;11634;42.734;23.298;2023-02-15T12:55:59;25.23;;;18.35;;
22937;SDS011;11634;42.734;23.298;2023-02-15T12:58:33;28.33;;;20.75;;
22937;SDS011;11634;42.734;23.298;2023-02-15T13:01:18;26.80;;;20.38;;
22937;SDS011;11634;42.734;23.298;2023-02-15T13:03:58;22.27;;;17.40;;
22937;SDS011;11634;42.734;23.298;2023-02-15T13:06:48;26.42;;;18.92;;
22937;SDS011;11634;42.734;23.298;2023-02-15T13:09:18;30.15;;;22.40;;
22937;SDS011;11634;42.734;23.298;2023-02-15T13:12:03;24.83;;;19.10;;
22937;SDS011;11634;42.734;23.298;2023-02-15T13:14:49;25.13;;;19.13;;
22937;SDS011;11634;42.734;23.298;2023-02-15T13:17:17;24.23;;;18.50;;
22937;SDS011;11634;42.734;23.298;2023-02-15T13:19:52;26.55;;;19.85;;
22937;SDS011;11634;42.734;23.298;2023-02-15T13:22:28;26.83;;;18.88;;
22937;SDS011;11634;42.734;23.298;2023-02-15T13:27:54;25.92;;;17.83;;
22937;SDS011;11634;42.734;23.298;2023-02-15T13:30:28;26.92;;;18.00;;
22937;SDS011;11634;42.734;23.298;2023-02-15T13:33:14;25.85;;;19.05;;
22937;SDS011;11634;42.734;23.298;2023-02-15T13:38:46;23.55;;;17.67;;
22937;SDS011;11634;42.734;23.298;2023-02-15T13:41:19;24.70;;;18.00;;
22937;SDS011;11634;42.734;23.298;2023-02-15T13:47:06;22.58;;;17.98;;
22937;SDS011;11634;42.734;23.298;2023-02-15T13:50:01;24.50;;;18.38;;
22937;SDS011;11634;42.734;23.298;2023-02-15T13:52:55;22.65;;;16.85;;
22937;SDS011;11634;42.734;23.298;2023-02-15T14:01:22;24.65;;;16.27;;
22937;SDS011;11634;42.734;23.298;2023-02-15T14:03:59;21.13;;;15.63;;
22937;SDS011;11634;42.734;23.298;2023-02-15T14:15:26;24.92;;;17.63;;
22937;SDS011;11634;42.734;23.298;2023-02-15T14:20:46;24.25;;;17.83;;
22937;SDS011;11634;42.734;23.298;2023-02-15T14:35:04;23.92;;;18.10;;
22937;SDS011;11634;42.734;23.298;2023-02-15T14:46:15;25.92;;;20.30;;
22937;SDS011;11634;42.734;23.298;2023-02-15T14:48:45;23.42;;;14.80;;
22937;SDS011;11634;42.734;23.298;2023-02-15T14:56:46;28.10;;;21.13;;
22937;SDS011;11634;42.734;23.298;2023-02-15T15:01:58;25.95;;;20.40;;
22937;SDS011;11634;42.734;23.298;2023-02-15T15:18:53;28.08;;;17.23;;
22937;SDS011;11634;42.734;23.298;2023-02-15T15:30:48;35.55;;;25.05;;
22937;SDS011;11634;42.734;23.298;2023-02-15T15:43:58;37.25;;;24.92;;
22937;SDS011;11634;42.734;23.298;2023-02-15T15:49:23;31.75;;;23.13;;
22937;SDS011;11634;42.734;23.298;2023-02-15T15:51:52;34.80;;;23.50;;
22937;SDS011;11634;42.734;23.298;2023-02-15T15:54:21;32.00;;;22.50;;
22937;SDS011;11634;42.734;23.298;2023-02-15T15:57:00;34.70;;;25.27;;
22937;SDS011;11634;42.734;23.298;2023-02-15T15:59:32;34.60;;;21.73;;
22937;SDS011;11634;42.734;23.298;2023-02-15T16:02:06;32.50;;;23.50;;
22937;SDS011;11634;42.734;23.298;2023-02-15T16:04:33;32.42;;;22.90;;
22937;SDS011;11634;42.734;23.298;2023-02-15T16:09:54;26.80;;;18.23;;
22937;SDS011;11634;42.734;23.298;2023-02-15T16:12:26;31.67;;;22.50;;
22937;SDS011;11634;42.734;23.298;2023-02-15T16:14:55;32.55;;;23.70;;
22937;SDS011;11634;42.734;23.298;2023-02-15T16:17:27;30.83;;;23.13;;
22937;SDS011;11634;42.734;23.298;2023-02-15T16:20:11;31.80;;;22.23;;
22937;SDS011;11634;42.734;23.298;2023-02-15T16:23:25;32.67;;;23.43;;
22937;SDS011;11634;42.734;23.298;2023-02-15T16:28:53;29.33;;;20.92;;
22937;SDS011;11634;42.734;23.298;2023-02-15T16:31:22;32.73;;;24.10;;
22937;SDS011;11634;42.734;23.298;2023-02-15T16:33:52;41.20;;;26.10;;
22937;SDS011;11634;42.734;23.298;2023-02-15T16:41:16;36.87;;;25.93;;
22937;SDS011;11634;42.734;23.298;2023-02-15T16:43:55;34.60;;;24.17;;
22937;SDS011;11634;42.734;23.298;2023-02-15T16:48:51;34.73;;;24.03;;
22937;SDS011;11634;42.734;23.298;2023-02-15T16:51:21;37.17;;;25.63;;
22937;SDS011;11634;42.734;23.298;2023-02-15T16:53:50;34.93;;;26.17;;
22937;SDS011;11634;42.734;23.298;2023-02-15T16:56:22;35.10;;;26.40;;
22937;SDS011;11634;42.734;23.298;2023-02-15T16:58:50;44.87;;;29.67;;
22937;SDS011;11634;42.734;23.298;2023-02-15T17:01:19;39.40;;;27.80;;
22937;SDS011;11634;42.734;23.298;2023-02-15T17:03:49;38.67;;;26.07;;
22937;SDS011;11634;42.734;23.298;2023-02-15T17:06:29;45.83;;;26.23;;
22937;SDS011;11634;42.734;23.298;2023-02-15T17:09:05;31.37;;;23.37;;
22937;SDS011;11634;42.734;23.298;2023-02-15T17:11:44;29.83;;;20.80;;
22937;SDS011;11634;42.734;23.298;2023-02-15T17:14:11;32.40;;;24.20;;
22937;SDS011;11634;42.734;23.298;2023-02-15T17:22:22;32.03;;;22.57;;
22937;SDS011;11634;42.734;23.298;2023-02-15T17:24:57;30.70;;;22.70;;
22937;SDS011;11634;42.734;23.298;2023-02-15T17:27:25;30.03;;;21.20;;
22937;SDS011;11634;42.734;23.298;2023-02-15T17:29:57;26.73;;;19.60;;
22937;SDS011;11634;42.734;23.298;2023-02-15T17:32:54;33.77;;;22.80;;
22937;SDS011;11634;42.734;23.298;2023-02-15T17:35:40;32.37;;;23.67;;
22937;SDS011;11634;42.734;23.298;2023-02-15T17:38:20;34.57;;;23.53;;
22937;SDS011;11634;42.734;23.298;2023-02-15T17:40:47;30.13;;;20.87;;
22937;SDS011;11634;42.734;23.298;2023-02-15T17:43:12;31.60;;;21.83;;
22937;SDS011;11634;42.734;23.298;2023-02-15T17:45:43;30.67;;;21.60;;
22937;SDS011;11634;42.734;23.298;2023-02-15T17:48:23;31.77;;;21.70;;
22937;SDS011;11634;42.734;23.298;2023-02-15T17:51:00;32.00;;;22.53;;
22937;SDS011;11634;42.734;23.298;2023-02-15T17:53:27;34.83;;;25.47;;
22937;SDS011;11634;42.734;23.298;2023-02-15T17:55:54;29.90;;;20.13;;
22937;SDS011;11634;42.734;23.298;2023-02-15T17:58:21;32.33;;;22.37;;
22937;SDS011;11634;42.734;23.298;2023-02-15T18:00:56;34.80;;;23.60;;
22937;SDS011;11634;42.734;23.298;2023-02-15T18:03:51;36.73;;;23.97;;
22937;SDS011;11634;42.734;23.298;2023-02-15T18:06:38;32.90;;;22.50;;
22937;SDS011;11634;42.734;23.298;2023-02-15T18:09:27;37.50;;;25.73;;
22937;SDS011;11634;42.734;23.298;2023-02-15T18:12:18;35.93;;;25.60;;
22937;SDS011;11634;42.734;23.298;2023-02-15T18:14:53;35.23;;;25.13;;